Time;durP1;ratioP1;P1;durP2;ratioP2;P2;SDS_P1;SDS_P2;PMS_P1;PMS_P2;Temp;Humidity;BMP_temperature;BMP_pressure;BME280_temperature;BME280_humidity;BME280_pressure;Samples;Min_cycle;Max_cycle;Signal;HPM_P1;HPM_P2
2021/11/23 00:00:32;;;;;;;9.38;4.28;;;;;;;8.09;52.47;102268.22;5012083;28;96787;-77
2021/11/23 00:03:00;;;;;;;11.07;4.97;;;;;;;7.77;53.17;102261.25;5011637;28;97506;-77
2021/11/23 00:05:27;;;;;;;8.82;4.03;;;;;;;7.78;53.04;102268.25;5011899;28;98904;-77
2021/11/23 00:07:54;;;;;;;9.40;4.95;;;;;;;7.73;53.34;102264.75;5012144;28;98883;-77
2021/11/23 00:10:20;;;;;;;12.80;5.25;;;;;;;7.53;53.60;102275.28;5011627;28;96822;-77
2021/11/23 00:12:46;;;;;;;14.20;5.60;;;;;;;7.64;53.44;102271.75;5010351;28;96849;-76
2021/11/23 00:15:13;;;;;;;11.38;5.32;;;;;;;7.89;53.62;102270.88;5012932;28;97876;-77
2021/11/23 00:17:39;;;;;;;7.68;4.72;;;;;;;7.82;52.90;102270.00;5007427;28;99137;-77
2021/11/23 00:20:09;;;;;;;14.95;5.55;;;;;;;7.93;53.10;102268.28;5011643;28;96719;-77
2021/11/23 00:22:36;;;;;;;8.43;5.18;;;;;;;8.06;52.98;102268.25;5011251;28;97736;-78
2021/11/23 00:25:04;;;;;;;9.70;4.88;;;;;;;8.10;52.61;102262.97;5010965;28;99270;-78
2021/11/23 00:27:31;;;;;;;9.35;5.30;;;;;;;8.13;52.59;102255.09;5010039;28;98868;-77
2021/11/23 00:29:57;;;;;;;7.95;5.13;;;;;;;8.17;52.13;102263.84;5010853;28;97158;-77
2021/11/23 00:32:23;;;;;;;10.27;4.93;;;;;;;7.91;52.98;102258.59;5011423;28;97077;-78
2021/11/23 00:34:50;;;;;;;13.68;6.65;;;;;;;7.56;54.22;102267.38;5011132;28;98902;-77
2021/11/23 00:37:18;;;;;;;16.92;6.10;;;;;;;8.00;53.13;102255.97;5010652;28;99203;-78
2021/11/23 00:39:45;;;;;;;14.00;5.72;;;;;;;7.97;53.28;102259.47;5012520;28;97381;-78
2021/11/23 00:42:11;;;;;;;11.63;5.10;;;;;;;8.11;52.59;102253.31;5011394;28;96953;-77
2021/11/23 00:44:38;;;;;;;9.65;5.18;;;;;;;7.95;52.83;102255.09;5013888;28;98778;-78
2021/11/23 00:47:04;;;;;;;11.85;5.72;;;;;;;7.84;53.77;102248.97;5013432;28;98849;-78
2021/11/23 00:49:31;;;;;;;10.63;5.97;;;;;;;7.94;53.85;102245.47;5015966;28;97047;-78
2021/11/23 00:51:57;;;;;;;13.55;5.93;;;;;;;7.83;53.71;102248.06;5011322;28;97216;-78
2021/11/23 00:54:25;;;;;;;10.82;5.82;;;;;;;7.79;53.68;102242.81;5011996;28;98919;-78
2021/11/23 00:56:52;;;;;;;11.43;5.30;;;;;;;7.90;53.63;102238.41;5010096;28;97668;-77
2021/11/23 00:59:18;;;;;;;20.90;5.93;;;;;;;7.68;54.39;102241.97;5013071;28;96669;-77
2021/11/23 01:01:45;;;;;;;16.17;5.90;;;;;;;7.92;53.56;102240.19;5012136;28;97253;-77
2021/11/23 01:04:11;;;;;;;9.25;5.65;;;;;;;7.88;53.54;102237.53;5013683;28;97728;-77
2021/11/23 01:06:37;;;;;;;11.80;6.30;;;;;;;7.55;54.20;102239.28;5012084;28;98988;-77
2021/11/23 01:09:04;;;;;;;11.55;6.20;;;;;;;7.83;53.90;102236.66;5013520;28;96654;-77
2021/11/23 01:11:32;;;;;;;13.75;6.45;;;;;;;7.83;54.28;102219.13;5013934;28;98323;-76
2021/11/23 01:13:58;;;;;;;11.50;6.22;;;;;;;7.76;54.42;102229.66;5012135;28;97550;-76
2021/11/23 01:16:25;;;;;;;12.70;6.25;;;;;;;7.83;53.77;102220.88;5011155;28;98776;-76
2021/11/23 01:18:52;;;;;;;13.35;5.63;;;;;;;7.90;53.92;102220.00;5012198;28;96776;-76
2021/11/23 01:21:18;;;;;;;9.75;6.07;;;;;;;8.00;53.79;102221.75;5012709;28;96977;-78
2021/11/23 01:23:44;;;;;;;12.77;6.28;;;;;;;8.11;53.59;102214.72;5014483;28;98906;-76
2021/11/23 01:26:11;;;;;;;10.02;5.22;;;;;;;8.19;52.94;102215.56;5014315;28;99161;-76
2021/11/23 01:28:39;;;;;;;13.32;6.07;;;;;;;8.11;52.94;102209.44;5015903;28;97335;-76
2021/11/23 01:31:06;;;;;;;13.13;5.57;;;;;;;7.64;54.96;102208.63;5015417;28;97457;-77
2021/11/23 01:33:32;;;;;;;10.75;6.05;;;;;;;7.96;53.77;102212.09;5016097;28;98913;-76
2021/11/23 01:35:59;;;;;;;9.98;6.07;;;;;;;8.07;53.43;102206.84;5013016;28;99198;-76
2021/11/23 01:38:25;;;;;;;10.35;5.63;;;;;;;8.22;52.95;102212.91;5008907;28;96814;-76
2021/11/23 01:40:52;;;;;;;16.25;7.05;;;;;;;8.26;52.92;102204.16;5013050;28;97290;-76
2021/11/23 01:43:18;;;;;;;12.77;6.03;;;;;;;8.18;53.26;102203.28;5014842;28;98965;-76
2021/11/23 01:45:46;;;;;;;12.05;6.07;;;;;;;8.28;52.64;102209.38;5013116;28;99154;-76
2021/11/23 01:48:12;;;;;;;12.40;6.20;;;;;;;7.91;54.10;102201.59;5015607;28;97242;-76
2021/11/23 01:50:39;;;;;;;10.55;6.72;;;;;;;7.93;53.88;102198.94;5014248;28;96847;-77
2021/11/23 01:53:07;;;;;;;10.85;6.07;;;;;;;8.05;53.93;102198.94;5014915;28;98979;-77
2021/11/23 01:55:34;;;;;;;13.82;5.90;;;;;;;8.25;53.27;102189.22;5012485;28;98937;-76
2021/11/23 01:58:01;;;;;;;17.90;6.47;;;;;;;8.38;53.12;102193.59;5015251;28;96828;-77
2021/11/23 02:00:28;;;;;;;12.93;6.60;;;;;;;8.35;52.81;102212.03;5014143;28;98929;-77
2021/11/23 02:02:56;;;;;;;12.80;6.28;;;;;;;8.49;52.59;102205.84;5015212;28;98906;-76
2021/11/23 02:05:22;;;;;;;11.30;6.22;;;;;;;8.46;52.85;102203.25;5012489;28;98990;-76
2021/11/23 02:07:50;;;;;;;12.13;6.55;;;;;;;8.65;52.08;102211.06;5013913;28;96856;-77
2021/11/23 02:10:17;;;;;;;15.82;6.20;;;;;;;8.58;52.14;102211.09;5012776;28;96885;-76
2021/11/23 02:12:43;;;;;;;13.02;6.47;;;;;;;8.47;53.27;102212.91;5013747;28;97597;-77
2021/11/23 02:15:12;;;;;;;12.77;6.20;;;;;;;8.51;52.93;102212.00;5009121;28;98950;-76
2021/11/23 02:17:39;;;;;;;14.40;5.90;;;;;;;8.62;52.97;102205.78;5014339;28;96701;-77
2021/11/23 02:20:10;;;;;;;13.32;5.53;;;;;;;8.65;52.64;102202.28;5013652;28;97202;-77
2021/11/23 02:22:37;;;;;;;15.57;6.53;;;;;;;8.56;52.83;102197.03;5015274;28;99504;-78
2021/11/23 02:25:04;;;;;;;11.52;5.93;;;;;;;8.47;53.41;102199.72;5014443;28;99336;-77
2021/11/23 02:27:31;;;;;;;13.05;6.43;;;;;;;8.46;53.58;102196.22;5014070;28;97019;-77
2021/11/23 02:29:57;;;;;;;12.05;5.60;;;;;;;8.66;53.17;102188.22;5013696;28;96780;-77
2021/11/23 02:32:24;;;;;;;8.60;5.22;;;;;;;8.64;52.89;102184.72;5002629;28;99444;-77
2021/11/23 02:34:50;;;;;;;10.52;5.70;;;;;;;8.48;52.89;102188.28;5014310;28;98778;-77
2021/11/23 02:37:18;;;;;;;11.77;5.97;;;;;;;8.63;53.07;102196.13;5013894;28;97618;-77
2021/11/23 02:39:45;;;;;;;20.40;6.07;;;;;;;8.68;52.92;102182.03;5014653;28;97020;-77
2021/11/23 02:42:12;;;;;;;17.42;6.07;;;;;;;8.85;52.70;102179.34;5013189;28;98949;-77
2021/11/23 02:44:42;;;;;;;11.13;6.10;;;;;;;8.78;52.39;102177.63;5013385;28;99269;-77
2021/11/23 02:47:09;;;;;;;12.05;5.75;;;;;;;8.66;52.67;102178.53;5012613;28;97797;-77
2021/11/23 02:49:35;;;;;;;10.65;5.55;;;;;;;8.99;52.25;102174.81;5013695;28;97697;-77
2021/11/23 02:52:03;;;;;;;11.13;6.45;;;;;;;8.77;52.86;102171.47;5014108;28;99205;-77
2021/11/23 02:54:30;;;;;;;10.52;6.10;;;;;;;8.66;53.31;102169.78;5014252;28;98902;-77
2021/11/23 02:56:57;;;;;;;10.55;5.85;;;;;;;8.79;52.66;102166.19;5013091;28;97038;-76
2021/11/23 02:59:23;;;;;;;11.70;5.82;;;;;;;8.90;52.52;102166.13;5012670;28;96768;-76
2021/11/23 03:01:50;;;;;;;13.32;5.88;;;;;;;8.90;52.67;102148.53;5014637;28;98990;-77
2021/11/23 03:04:17;;;;;;;12.95;6.00;;;;;;;8.82;53.09;102160.88;5014273;28;99206;-77
2021/11/23 03:06:45;;;;;;;11.60;6.10;;;;;;;8.97;52.32;102162.56;5012093;28;97631;-77
2021/11/23 03:09:12;;;;;;;11.55;6.25;;;;;;;9.01;52.69;102167.78;5013576;28;97058;-77
2021/11/23 03:11:40;;;;;;;12.98;5.55;;;;;;;8.94;53.02;102174.00;5013609;28;99263;-77
2021/11/23 03:14:06;;;;;;;11.85;5.60;;;;;;;9.10;52.62;102159.84;5014272;28;98793;-78
2021/11/23 03:16:33;;;;;;;15.35;6.57;;;;;;;9.14;52.70;102156.28;5012796;28;97580;-76
2021/11/23 03:18:59;;;;;;;10.85;6.10;;;;;;;9.16;52.24;102159.78;5013557;28;96935;-77
2021/11/23 03:21:25;;;;;;;14.00;5.97;;;;;;;9.10;52.90;102161.59;5014517;28;97783;-78
2021/11/23 03:23:52;;;;;;;11.40;5.75;;;;;;;9.32;52.18;102162.31;5018562;28;98796;-77
2021/11/23 03:26:18;;;;;;;15.38;6.00;;;;;;;9.08;53.38;102160.72;5015624;28;96779;-77
2021/11/23 03:28:46;;;;;;;11.93;6.35;;;;;;;9.04;53.32;102164.28;5013883;28;96807;-77
2021/11/23 03:31:13;;;;;;;12.80;5.85;;;;;;;9.23;53.34;102155.34;5012983;28;101190;-77
2021/11/23 03:33:39;;;;;;;12.30;5.97;;;;;;;9.16;53.54;102170.34;5012786;28;99276;-77
2021/11/23 03:36:06;;;;;;;15.88;5.80;;;;;;;9.04;54.22;102165.16;5013357;28;96691;-77
2021/11/23 03:38:32;;;;;;;15.32;6.35;;;;;;;9.20;53.82;102166.78;5007102;28;98842;-77
2021/11/23 03:40:58;;;;;;;13.93;6.15;;;;;;;9.22;53.78;102160.63;5013415;28;98900;-77
2021/11/23 03:43:25;;;;;;;20.88;6.32;;;;;;;9.32;53.77;102162.31;5012388;28;98848;-77
2021/11/23 03:45:53;;;;;;;17.60;7.07;;;;;;;9.28;53.93;102165.84;5011744;28;96874;-77
2021/11/23 03:48:19;;;;;;;14.48;6.38;;;;;;;9.36;54.05;102164.03;5036123;27;96785;-77
2021/11/23 03:50:46;;;;;;;15.50;6.63;;;;;;;9.34;54.02;102157.88;5037230;27;98441;-78
2021/11/23 03:53:12;;;;;;;10.75;6.10;;;;;;;9.40;54.02;102153.44;5036646;28;97731;-77
2021/11/23 03:55:40;;;;;;;14.93;6.70;;;;;;;9.29;54.74;102152.66;5036432;28;95875;-79
2021/11/23 03:58:07;;;;;;;12.13;6.78;;;;;;;9.34;54.35;102157.88;5023296;28;97798;-77
2021/11/23 04:00:34;;;;;;;16.25;7.40;;;;;;;9.23;55.00;102155.34;5013199;28;99863;-77
2021/11/23 04:03:02;;;;;;;14.20;7.07;;;;;;;9.33;54.79;102164.03;5014473;28;98283;-77
2021/11/23 04:05:29;;;;;;;13.32;7.13;;;;;;;9.14;55.13;102156.28;5013624;28;97231;-77
2021/11/23 04:07:56;;;;;;;14.07;6.85;;;;;;;9.31;54.74;102152.66;5013575;28;96826;-76
2021/11/23 04:10:23;;;;;;;16.50;6.88;;;;;;;9.46;55.24;102142.81;5011584;28;98916;-76
2021/11/23 04:12:51;;;;;;;11.18;6.13;;;;;;;9.32;54.95;102147.34;5013343;28;98881;-76
2021/11/23 04:15:18;;;;;;;15.55;6.97;;;;;;;9.28;56.05;102132.44;5011709;28;97182;-76
2021/11/23 04:17:45;;;;;;;12.90;6.93;;;;;;;9.39;55.68;102129.69;5012374;28;96764;-76
2021/11/23 04:20:13;;;;;;;16.67;7.10;;;;;;;9.29;55.69;102125.41;5013024;28;98912;-76
2021/11/23 04:22:40;;;;;;;18.08;8.20;;;;;;;9.37;55.82;102132.38;5012343;28;98995;-76
2021/11/23 04:25:08;;;;;;;15.55;8.00;;;;;;;9.45;55.96;102124.38;5013115;28;97379;-76
2021/11/23 04:27:35;;;;;;;13.30;7.43;;;;;;;9.39;56.36;102127.06;5012120;28;97403;-76
2021/11/23 04:30:01;;;;;;;14.07;7.28;;;;;;;9.41;56.97;102133.22;5012240;28;99166;-76
2021/11/23 04:32:29;;;;;;;15.18;8.20;;;;;;;9.36;56.88;102141.16;5012165;28;98691;-76
2021/11/23 04:34:55;;;;;;;19.77;7.95;;;;;;;9.53;56.80;102125.16;5012605;28;97109;-76
2021/11/23 04:37:23;;;;;;;13.50;7.70;;;;;;;9.48;56.70;102119.94;5011785;28;96704;-76
2021/11/23 04:39:52;;;;;;;13.13;7.60;;;;;;;9.42;57.18;102122.66;5012374;28;98127;-77
2021/11/23 04:42:18;;;;;;;16.38;8.30;;;;;;;9.35;57.42;102114.78;5010120;28;101281;-77
2021/11/23 04:44:45;;;;;;;13.32;7.50;;;;;;;9.38;57.40;102113.03;5012299;28;96720;-77
2021/11/23 04:47:11;;;;;;;15.55;7.97;;;;;;;9.22;57.36;102108.75;5011811;28;96798;-77
2021/11/23 04:49:38;;;;;;;16.60;7.90;;;;;;;9.43;57.52;102105.06;5012738;28;98234;-77
2021/11/23 04:52:05;;;;;;;15.05;8.05;;;;;;;9.44;58.12;102107.69;5012292;28;99348;-77
2021/11/23 04:54:33;;;;;;;18.10;8.45;;;;;;;8.59;60.58;102118.00;5013415;28;97036;-77
2021/11/23 04:56:59;;;;;;;22.00;8.73;;;;;;;9.01;59.21;102109.78;5013988;28;96772;-77
2021/11/23 04:59:26;;;;;;;19.02;7.95;;;;;;;9.23;59.45;102110.50;5014989;28;99287;-76
2021/11/23 05:01:52;;;;;;;19.35;10.15;;;;;;;9.30;58.50;102106.94;5017947;28;98910;-76
2021/11/23 05:04:19;;;;;;;13.98;8.70;;;;;;;9.27;59.37;102101.66;5019566;28;96769;-77
2021/11/23 05:06:46;;;;;;;18.20;8.95;;;;;;;9.37;59.10;102099.84;5018460;28;96674;-77
2021/11/23 05:09:12;;;;;;;18.17;8.38;;;;;;;9.63;58.20;102087.25;5018664;28;98125;-77
2021/11/23 05:11:45;;;;;;;16.20;8.80;;;;;;;9.19;58.84;102093.81;5021637;28;98843;-77
2021/11/23 05:14:12;;;;;;;19.38;9.00;;;;;;;9.36;58.92;102092.81;5019516;28;96787;-77
2021/11/23 05:16:38;;;;;;;21.17;9.70;;;;;;;9.31;58.74;102095.50;5018999;28;97017;-78
2021/11/23 05:19:05;;;;;;;17.67;9.32;;;;;;;9.23;59.32;102102.59;5016368;28;98882;-76
2021/11/23 05:21:31;;;;;;;19.73;9.23;;;;;;;9.45;58.91;102108.56;5019885;28;99237;-77
2021/11/23 05:23:58;;;;;;;19.15;9.18;;;;;;;9.26;60.11;102104.31;5015538;28;97967;-77
2021/11/23 05:26:24;;;;;;;18.30;10.10;;;;;;;9.51;59.35;102105.88;5007720;28;97045;-77
2021/11/23 05:28:52;;;;;;;19.90;10.15;;;;;;;9.44;59.36;102112.97;5013928;28;97780;-77
2021/11/23 05:31:19;;;;;;;18.00;9.57;;;;;;;9.52;59.14;102110.22;5016134;28;99468;-77
2021/11/23 05:33:45;;;;;;;18.60;9.20;;;;;;;9.55;59.22;102126.03;5016258;28;98568;-78
2021/11/23 05:36:11;;;;;;;19.88;9.88;;;;;;;9.55;59.05;102116.38;5016010;28;97123;-79
2021/11/23 05:38:38;;;;;;;18.05;9.27;;;;;;;9.53;59.50;102133.09;5014807;28;98963;-77
2021/11/23 05:41:06;;;;;;;22.08;10.85;;;;;;;9.52;58.50;102128.69;5015892;28;98851;-78
2021/11/23 05:43:32;;;;;;;27.05;11.30;;;;;;;9.35;60.58;102127.97;5015278;28;97127;-78
2021/11/23 05:46:00;;;;;;;22.83;10.93;;;;;;;9.56;59.78;102123.41;5014730;28;96805;-77
2021/11/23 05:48:27;;;;;;;22.63;10.25;;;;;;;9.45;60.46;102125.25;5014123;28;99220;-77
2021/11/23 05:50:54;;;;;;;23.05;10.65;;;;;;;9.44;59.94;102120.88;5014296;28;99330;-78
2021/11/23 05:53:20;;;;;;;25.48;10.98;;;;;;;8.85;62.66;102121.34;5009391;28;96865;-78
2021/11/23 05:55:46;;;;;;;22.50;11.63;;;;;;;9.12;62.42;102130.81;5015134;28;96927;-77
2021/11/23 05:58:13;;;;;;;26.10;10.52;;;;;;;9.14;59.60;102123.75;5015367;28;99149;-78
2021/11/23 06:00:39;;;;;;;24.08;10.60;;;;;;;9.39;61.39;102119.13;5015704;28;99004;-78
2021/11/23 06:03:07;;;;;;;25.10;10.98;;;;;;;8.78;62.39;102131.06;5015950;28;96869;-78
2021/11/23 06:05:33;;;;;;;24.38;11.95;;;;;;;9.24;61.56;102125.44;5019203;28;97474;-78
2021/11/23 06:08:00;;;;;;;30.70;11.68;;;;;;;9.11;62.61;102123.78;5019956;28;98897;-77
2021/11/23 06:10:26;;;;;;;20.65;11.63;;;;;;;9.54;61.88;102129.56;5024545;28;96859;-77
2021/11/23 06:12:53;;;;;;;23.45;11.63;;;;;;;9.84;60.87;102128.41;5034281;28;96616;-78
2021/11/23 06:15:20;;;;;;;21.52;11.77;;;;;;;9.92;60.04;102132.69;5038764;28;97068;-78
2021/11/23 06:17:50;;;;;;;24.85;11.45;;;;;;;9.87;60.24;102121.31;5038359;28;99473;-78
2021/11/23 06:20:18;;;;;;;21.05;11.43;;;;;;;9.93;60.61;102137.09;5035421;28;97757;-77
2021/11/23 06:22:44;;;;;;;22.48;11.65;;;;;;;9.82;61.28;102138.97;5036062;28;96961;-76
2021/11/23 06:25:11;;;;;;;28.40;13.10;;;;;;;9.96;60.63;102145.00;5035079;28;95983;-77
2021/11/23 06:27:38;;;;;;;26.88;12.90;;;;;;;9.85;60.75;102153.88;5038520;28;97771;-76
2021/11/23 06:30:06;;;;;;;29.83;12.68;;;;;;;9.81;61.04;102150.41;5037360;28;97665;-76
2021/11/23 06:32:32;;;;;;;24.58;12.43;;;;;;;9.74;60.66;102158.41;5032271;28;97215;-75
2021/11/23 06:34:59;;;;;;;20.98;11.50;;;;;;;9.75;61.19;102160.16;5029334;28;96623;-78
2021/11/23 06:37:27;;;;;;;25.15;12.07;;;;;;;10.08;60.12;102156.28;5031225;28;97762;-78
2021/11/23 06:39:59;;;;;;;23.17;12.45;;;;;;;9.78;61.24;102158.34;5026284;28;97739;-77
2021/11/23 06:42:26;;;;;;;27.15;12.98;;;;;;;9.26;61.85;102163.22;5024958;28;98100;-78
2021/11/23 06:44:53;;;;;;;20.90;12.43;;;;;;;9.50;63.20;102175.34;5019487;28;97554;-78
2021/11/23 06:47:20;;;;;;;21.88;12.10;;;;;;;9.79;62.01;102172.44;5026153;28;98128;-75
2021/11/23 06:49:46;;;;;;;26.65;12.65;;;;;;;9.79;62.35;102170.66;5021978;28;98146;-78
2021/11/23 06:52:13;;;;;;;24.75;13.18;;;;;;;9.88;61.91;102172.34;5026067;28;97305;-77
2021/11/23 06:54:40;;;;;;;25.00;13.27;;;;;;;9.77;61.80;102177.75;5027822;28;96801;-76
2021/11/23 06:57:07;;;;;;;24.98;12.32;;;;;;;9.74;62.04;102180.41;5026001;28;98097;-76
2021/11/23 06:59:34;;;;;;;21.92;12.25;;;;;;;10.01;62.17;102173.97;5025653;28;97717;-77
2021/11/23 07:02:04;;;;;;;25.23;12.88;;;;;;;10.06;61.28;102174.78;5022426;28;96808;-76
2021/11/23 07:04:31;;;;;;;22.92;13.05;;;;;;;9.86;61.46;102180.28;5022592;28;96743;-77
2021/11/23 07:06:57;;;;;;;22.10;12.18;;;;;;;10.01;61.81;102187.19;5021477;28;97715;-78
2021/11/23 07:09:24;;;;;;;24.80;13.02;;;;;;;10.26;61.30;102196.63;5018407;28;99315;-79
2021/11/23 07:11:53;;;;;;;29.67;13.27;;;;;;;10.20;61.03;102211.66;5019735;28;96772;-77
2021/11/23 07:14:20;;;;;;;24.30;12.50;;;;;;;9.65;61.80;102212.16;5026340;28;96988;-78
2021/11/23 07:16:47;;;;;;;25.95;12.95;;;;;;;10.02;61.63;102206.53;5023288;28;99705;-77
2021/11/23 07:19:14;;;;;;;26.45;12.90;;;;;;;9.94;61.31;102207.50;5021584;28;96813;-76
2021/11/23 07:21:47;;;;;;;28.83;13.48;;;;;;;9.98;61.94;102214.47;5022714;28;96983;-77
2021/11/23 07:24:13;;;;;;;31.95;13.73;;;;;;;9.97;62.03;102230.38;5020027;27;98618;-79
2021/11/23 07:26:40;;;;;;;27.23;13.25;;;;;;;10.09;61.90;102234.66;5013701;28;98632;-78
2021/11/23 07:29:09;;;;;;;26.98;13.20;;;;;;;10.09;61.43;102235.53;5023039;28;98909;-77
2021/11/23 07:31:36;;;;;;;26.30;12.60;;;;;;;9.07;62.15;102238.94;5029439;28;99395;-78
2021/11/23 07:34:03;;;;;;;30.73;14.45;;;;;;;9.12;65.84;102239.78;5029419;28;96858;-77
2021/11/23 07:36:30;;;;;;;34.75;14.30;;;;;;;9.50;64.38;102238.69;5024552;28;101231;-79
2021/11/23 07:39:00;;;;;;;26.55;12.93;;;;;;;9.73;64.06;102234.09;5023727;28;98048;-77
2021/11/23 07:41:27;;;;;;;27.98;13.88;;;;;;;10.10;62.58;102228.47;5017024;28;97541;-77
2021/11/23 07:43:53;;;;;;;26.08;12.85;;;;;;;10.01;61.81;102216.22;5028757;28;96894;-77
2021/11/23 07:46:22;;;;;;;30.13;12.52;;;;;;;10.19;61.69;102220.47;5021983;28;97342;-80
2021/11/23 07:48:52;;;;;;;25.23;12.82;;;;;;;9.82;61.17;102226.09;5027349;28;98149;-81
2021/11/23 07:51:18;;;;;;;24.83;12.50;;;;;;;9.58;63.26;102239.50;5024323;28;97261;-80
2021/11/23 07:53:46;;;;;;;22.52;12.35;;;;;;;9.86;63.47;102233.09;5023185;28;96754;-79
2021/11/23 07:56:13;;;;;;;24.88;12.70;;;;;;;10.28;62.39;102231.84;5021762;28;99895;-78
2021/11/23 07:58:40;;;;;;;24.75;11.57;;;;;;;10.35;61.30;102230.00;5019847;28;96918;-79
2021/11/23 08:01:07;;;;;;;24.30;11.68;;;;;;;10.60;60.90;102222.66;5015714;28;97437;-78
2021/11/23 08:03:35;;;;;;;21.10;11.05;;;;;;;10.28;61.29;102217.75;5008621;28;96947;-78
2021/11/23 08:06:02;;;;;;;21.67;11.43;;;;;;;10.00;62.50;102217.13;5005725;28;99469;-78
2021/11/23 08:08:30;;;;;;;25.45;11.75;;;;;;;10.17;62.10;102222.28;5005156;28;97623;-78
2021/11/23 08:11:00;;;;;;;25.00;11.82;;;;;;;10.25;61.88;102225.69;5004367;28;98022;-79
2021/11/23 08:13:26;;;;;;;24.27;12.10;;;;;;;10.60;61.25;102230.59;5005861;28;98681;-79
2021/11/23 08:15:53;;;;;;;22.60;11.85;;;;;;;10.37;61.86;102230.88;5006051;28;99199;-78
2021/11/23 08:18:20;;;;;;;28.63;12.43;;;;;;;10.22;62.29;102231.91;5004997;28;98999;-79
2021/11/23 08:20:48;;;;;;;26.45;12.43;;;;;;;10.58;61.49;102233.25;5006337;28;98075;-78
2021/11/23 08:23:17;;;;;;;22.55;11.80;;;;;;;10.65;61.02;102237.56;5006427;28;97445;-77
2021/11/23 08:25:46;;;;;;;26.95;12.00;;;;;;;10.40;62.16;102230.81;5006308;28;100003;-78
2021/11/23 08:28:12;;;;;;;23.90;11.50;;;;;;;10.60;60.89;102234.09;5015177;28;98337;-79
2021/11/23 08:30:39;;;;;;;25.27;11.55;;;;;;;10.40;61.90;102230.81;5012022;28;96773;-80
2021/11/23 08:33:06;;;;;;;25.02;12.13;;;;;;;10.59;61.59;102237.63;5017472;28;98589;-78
2021/11/23 08:35:32;;;;;;;24.17;12.18;;;;;;;10.24;62.42;102229.25;5011388;28;98928;-77
2021/11/23 08:38:00;;;;;;;20.90;10.90;;;;;;;10.61;62.12;102241.16;5011900;28;101144;-77
2021/11/23 08:40:27;;;;;;;24.05;11.95;;;;;;;10.73;61.91;102241.00;5014116;28;97424;-78
2021/11/23 08:42:53;;;;;;;23.55;11.32;;;;;;;10.77;61.15;102242.69;5014574;28;97982;-77
2021/11/23 08:45:20;;;;;;;25.45;12.50;;;;;;;10.73;61.33;102237.47;5008773;28;98989;-79
2021/11/23 08:47:48;;;;;;;23.58;11.65;;;;;;;10.76;60.79;102246.22;5006087;28;99489;-79
2021/11/23 08:50:15;;;;;;;19.08;10.40;;;;;;;10.93;60.65;102239.84;5012142;28;96869;-78
2021/11/23 08:52:42;;;;;;;19.30;10.75;;;;;;;10.52;61.68;102241.25;5009218;28;97482;-78
2021/11/23 08:55:11;;;;;;;15.93;9.50;;;;;;;10.68;61.74;102231.38;5008182;28;98208;-78
2021/11/23 08:57:38;;;;;;;19.65;10.60;;;;;;;10.80;61.15;102228.56;5005260;28;99338;-77
2021/11/23 09:00:14;;;;;;;19.08;9.40;;;;;;;10.92;60.62;102238.97;5005029;28;97771;-79
2021/11/23 09:02:41;;;;;;;21.08;9.75;;;;;;;11.09;60.11;102244.91;4999392;28;98113;-79
2021/11/23 09:05:10;;;;;;;20.65;9.60;;;;;;;11.09;60.79;102246.72;5018962;28;99589;-78
2021/11/23 09:07:40;;;;;;;19.92;8.77;;;;;;;10.99;61.03;102238.00;5013471;27;97937;-79
2021/11/23 09:10:09;;;;;;;18.77;9.68;;;;;;;10.67;61.80;102242.84;5018241;28;96896;-78
2021/11/23 09:12:37;;;;;;;16.98;10.20;;;;;;;10.30;62.07;102252.97;5016180;28;96880;-79
2021/11/23 09:15:04;;;;;;;20.85;10.98;;;;;;;10.69;62.00;102255.16;5011051;28;99119;-79
2021/11/23 09:17:31;;;;;;;23.55;10.52;;;;;;;10.99;61.06;102253.88;5012091;28;98040;-80
2021/11/23 09:19:57;;;;;;;24.70;10.82;;;;;;;11.23;60.67;102259.72;5014522;28;96953;-79
2021/11/23 09:22:24;;;;;;;22.63;10.75;;;;;;;11.36;60.52;102258.63;5009736;28;97005;-78
2021/11/23 09:24:50;;;;;;;21.50;10.52;;;;;;;11.39;60.19;102280.66;5013629;28;99295;-79
2021/11/23 09:27:17;;;;;;;21.83;10.90;;;;;;;11.03;60.81;102281.16;5014029;28;99151;-79
2021/11/23 09:29:49;;;;;;;23.77;10.80;;;;;;;11.04;61.32;102278.50;5004758;28;98694;-80
2021/11/23 09:32:16;;;;;;;24.95;11.48;;;;;;;11.28;60.40;102277.28;5012628;28;97232;-79
2021/11/23 09:34:42;;;;;;;22.15;10.65;;;;;;;11.39;60.38;102274.47;5016523;28;98958;-78
2021/11/23 09:37:09;;;;;;;19.85;11.05;;;;;;;11.46;59.77;102277.03;5014332;28;99265;-78
2021/11/23 09:39:36;;;;;;;21.15;10.38;;;;;;;11.47;60.40;102281.44;5011752;28;97038;-79
2021/11/23 09:42:03;;;;;;;25.48;11.25;;;;;;;11.33;60.75;102277.22;5015370;28;96982;-79
2021/11/23 09:44:31;;;;;;;21.17;11.68;;;;;;;11.27;60.55;102275.53;5013676;28;99249;-79
2021/11/23 09:46:59;;;;;;;25.60;11.30;;;;;;;11.10;60.79;102270.47;5016450;28;99291;-81
2021/11/23 09:49:26;;;;;;;22.90;11.80;;;;;;;10.92;61.62;102278.66;5015679;28;97635;-79
2021/11/23 09:51:52;;;;;;;21.33;11.05;;;;;;;11.09;62.05;102278.44;5013292;28;96874;-80
2021/11/23 09:54:19;;;;;;;22.17;11.68;;;;;;;11.00;61.63;102281.19;5015275;28;99188;-79
2021/11/23 09:56:48;;;;;;;24.23;11.60;;;;;;;10.78;62.61;102291.16;5015293;28;98860;-79
2021/11/23 09:59:14;;;;;;;25.35;12.15;;;;;;;10.75;63.27;102278.88;5014628;28;97381;-79
2021/11/23 10:01:51;;;;;;;23.90;11.85;;;;;;;10.95;62.59;102283.91;5013571;28;96761;-78
2021/11/23 10:04:21;;;;;;;23.60;11.95;;;;;;;11.18;62.06;102287.13;5013581;28;101136;-78
2021/11/23 10:06:56;;;;;;;25.38;12.10;;;;;;;11.31;61.36;102279.88;5014304;28;101293;-78
2021/11/23 10:09:38;;;;;;;23.95;12.32;;;;;;;10.90;61.17;102287.47;5015221;28;97172;-78
2021/11/23 10:12:15;;;;;;;23.13;12.10;;;;;;;11.06;61.83;102289.06;5010766;28;96942;-78
2021/11/23 10:15:04;;;;;;;24.30;11.70;;;;;;;10.99;62.63;102285.63;5010280;28;97843;-78
2021/11/23 10:17:31;;;;;;;24.33;12.40;;;;;;;11.42;61.32;102290.34;5007678;28;99095;-78
2021/11/23 10:19:58;;;;;;;25.20;11.27;;;;;;;11.35;61.07;102278.97;5010558;28;97094;-78
2021/11/23 10:22:31;;;;;;;22.05;11.02;;;;;;;11.58;60.86;102275.97;5012951;28;98182;-78
2021/11/23 10:25:00;;;;;;;21.95;11.98;;;;;;;11.22;61.27;102274.75;5006463;28;99111;-78
2021/11/23 10:27:26;;;;;;;23.15;11.40;;;;;;;11.09;61.79;102265.22;5011152;28;99095;-79
2021/11/23 10:29:53;;;;;;;20.20;11.48;;;;;;;11.47;61.63;102270.84;5012165;28;97171;-79
2021/11/23 10:32:22;;;;;;;20.08;11.55;;;;;;;11.58;60.87;102275.97;5011255;28;98328;-79
2021/11/23 10:34:50;;;;;;;29.75;14.88;;;;;;;11.61;60.70;102265.34;5009571;28;98957;-79
2021/11/23 10:37:31;;;;;;;24.25;11.60;;;;;;;11.31;62.00;102271.94;5016651;28;99208;-79
2021/11/23 10:40:11;;;;;;;29.15;12.10;;;;;;;11.83;60.37;102266.75;5012269;28;97935;-78
2021/11/23 10:42:38;;;;;;;18.73;10.48;;;;;;;10.68;61.80;102269.25;5007156;28;98604;-78
2021/11/23 10:45:09;;;;;;;19.00;10.77;;;;;;;11.37;62.02;102269.22;5011377;28;99008;-78
2021/11/23 10:47:37;;;;;;;19.02;9.90;;;;;;;11.42;61.49;102264.72;5013977;28;100421;-78
2021/11/23 10:50:07;;;;;;;18.02;10.02;;;;;;;11.70;61.18;102264.28;5015624;28;96883;-78
2021/11/23 10:52:39;;;;;;;16.65;9.15;;;;;;;11.85;60.57;102264.09;5012256;28;97058;-80
2021/11/23 10:55:24;;;;;;;16.35;10.07;;;;;;;12.02;59.64;102262.00;5024175;28;97860;-78
2021/11/23 10:57:53;;;;;;;18.17;10.10;;;;;;;11.57;60.72;102259.19;5026993;28;98028;-79
2021/11/23 11:00:21;;;;;;;17.85;9.90;;;;;;;11.74;60.97;102252.81;5024275;28;97770;-79
2021/11/23 11:02:48;;;;;;;24.38;10.68;;;;;;;11.69;60.89;102251.94;5029556;28;97541;-79
2021/11/23 11:05:17;;;;;;;19.77;10.05;;;;;;;11.51;61.19;102245.19;5030399;28;97668;-80
2021/11/23 11:07:46;;;;;;;21.08;10.38;;;;;;;11.82;60.78;102242.94;5031425;28;97664;-79
2021/11/23 11:10:13;;;;;;;22.88;10.68;;;;;;;12.00;60.52;102241.75;5014730;28;96788;-80
2021/11/23 11:12:41;;;;;;;16.63;10.45;;;;;;;12.19;59.77;102240.53;5010080;28;98668;-79
2021/11/23 11:15:12;;;;;;;19.42;10.60;;;;;;;12.15;59.81;102242.34;5011866;28;101796;-78
2021/11/23 11:17:39;;;;;;;22.92;10.98;;;;;;;12.23;59.05;102239.56;5007500;28;99259;-78
2021/11/23 11:20:10;;;;;;;19.45;10.52;;;;;;;11.51;60.33;102235.47;5009413;28;98126;-77